Time;durP1;ratioP1;P1;durP2;ratioP2;P2;SDS_P1;SDS_P2;PMS_P1;PMS_P2;Temp;Humidity;BMP_temperature;BMP_pressure;BME280_temperature;BME280_humidity;BME280_pressure;Samples;Min_cycle;Max_cycle;Signal;HPM_P1;HPM_P2
2022/10/03 00:01:35;;;;;;;10.18;1.20;;;10.40;99.90;;;;;;4940685;28;20039;-84
2022/10/03 00:04:39;;;;;;;12.60;1.75;;;10.20;99.90;;;;;;4946039;28;20040;-84
2022/10/03 00:07:26;;;;;;;15.30;2.33;;;10.20;99.90;;;;;;4942733;28;20578;-84
2022/10/03 00:10:15;;;;;;;10.52;1.73;;;10.10;99.90;;;;;;4953506;28;20043;-84
2022/10/03 00:12:48;;;;;;;12.52;1.70;;;10.10;99.90;;;;;;4933622;28;20179;-85
2022/10/03 00:15:20;;;;;;;16.30;1.83;;;10.10;99.90;;;;;;4918987;28;20039;-84
2022/10/03 00:17:49;;;;;;;16.23;2.10;;;10.10;99.90;;;;;;4920332;28;20057;-85
2022/10/03 00:20:44;;;;;;;14.27;2.70;;;10.10;99.90;;;;;;4923174;28;20042;-85
2022/10/03 00:23:20;;;;;;;14.15;1.95;;;10.00;99.90;;;;;;4919550;28;20079;-85
2022/10/03 00:25:52;;;;;;;16.48;2.40;;;10.00;99.90;;;;;;4960142;28;20686;-85
2022/10/03 00:28:54;;;;;;;16.75;1.75;;;10.00;99.90;;;;;;4950468;28;20666;-84
2022/10/03 00:31:52;;;;;;;11.77;2.20;;;10.00;99.90;;;;;;4940461;28;20049;-85
2022/10/03 00:34:53;;;;;;;16.30;2.35;;;9.90;99.90;;;;;;4955748;28;20048;-84
2022/10/03 00:37:24;;;;;;;11.70;2.40;;;9.90;99.90;;;;;;4954156;28;20297;-84
2022/10/03 00:40:10;;;;;;;11.23;1.65;;;9.90;99.90;;;;;;4970581;28;20043;-84
2022/10/03 00:43:19;;;;;;;12.93;1.90;;;9.90;99.90;;;;;;4955812;28;20611;-84
2022/10/03 00:46:02;;;;;;;12.85;1.73;;;9.90;99.90;;;;;;4918109;28;20044;-84
2022/10/03 00:48:39;;;;;;;20.17;2.25;;;9.90;99.90;;;;;;4919664;29;20047;-84
2022/10/03 00:51:50;;;;;;;14.30;1.92;;;9.90;99.90;;;;;;4954405;28;20782;-84
2022/10/03 00:54:30;;;;;;;15.00;2.40;;;9.90;99.90;;;;;;4906052;28;20062;-84
2022/10/03 00:57:26;;;;;;;15.23;2.15;;;10.00;99.90;;;;;;4953800;28;20038;-84
2022/10/03 01:00:01;;;;;;;15.48;2.67;;;10.00;99.90;;;;;;4953398;28;20125;-84
2022/10/03 01:02:47;;;;;;;12.77;2.47;;;10.00;99.90;;;;;;4937140;28;20043;-84
2022/10/03 01:05:35;;;;;;;15.27;1.58;;;9.90;99.90;;;;;;4950018;28;20063;-84
2022/10/03 01:08:36;;;;;;;9.75;1.67;;;10.00;99.90;;;;;;4970321;28;20050;-84
2022/10/03 01:11:11;;;;;;;11.90;1.90;;;9.90;99.90;;;;;;4932611;29;20099;-84
2022/10/03 01:14:01;;;;;;;11.27;1.42;;;10.00;99.90;;;;;;4971116;28;20046;-84
2022/10/03 01:16:47;;;;;;;11.50;1.48;;;10.00;99.90;;;;;;4959926;28;20047;-84
2022/10/03 01:19:41;;;;;;;12.07;1.98;;;9.90;99.90;;;;;;4974320;28;20041;-84
2022/10/03 01:22:25;;;;;;;11.85;1.38;;;9.90;99.90;;;;;;4926349;29;20039;-84
2022/10/03 01:24:58;;;;;;;9.57;1.38;;;9.90;99.90;;;;;;4974732;28;20041;-84
2022/10/03 01:30:21;;;;;;;15.80;2.00;;;10.00;99.90;;;;;;4964998;28;20042;-84
2022/10/03 01:30:21;;;;;;;12.65;1.45;;;10.00;99.90;;;;;;4938991;29;20496;-84
2022/10/03 01:32:54;;;;;;;8.43;1.13;;;10.00;99.90;;;;;;4934571;28;20039;-84
2022/10/03 01:35:26;;;;;;;10.27;1.15;;;10.00;99.90;;;;;;4935799;29;20050;-85
2022/10/03 01:38:08;;;;;;;17.48;3.22;;;9.90;99.90;;;;;;4937842;28;20039;-84
2022/10/03 01:40:39;;;;;;;12.77;1.80;;;10.00;99.90;;;;;;4927648;28;20039;-84
2022/10/03 01:43:20;;;;;;;14.75;2.25;;;10.00;99.90;;;;;;4930962;29;20070;-85
2022/10/03 01:45:52;;;;;;;12.25;1.85;;;10.00;99.90;;;;;;4946073;28;20047;-84
2022/10/03 01:48:44;;;;;;;10.88;1.70;;;10.00;99.90;;;;;;4955239;28;20035;-84
2022/10/03 01:51:15;;;;;;;12.43;1.58;;;10.00;99.90;;;;;;4955356;28;20403;-84
2022/10/03 01:54:18;;;;;;;16.35;1.95;;;10.00;99.90;;;;;;4925930;28;20039;-84
2022/10/03 01:57:00;;;;;;;20.23;2.40;;;10.00;99.90;;;;;;4964283;28;20047;-84
2022/10/03 02:00:05;;;;;;;14.95;1.88;;;10.00;99.90;;;;;;4926619;28;20066;-84
2022/10/03 02:02:37;;;;;;;11.48;1.45;;;10.00;99.90;;;;;;4965960;28;20371;-84
2022/10/03 02:05:05;;;;;;;13.85;2.60;;;10.10;99.90;;;;;;4966114;28;20039;-84
2022/10/03 02:07:34;;;;;;;11.23;1.45;;;10.00;99.90;;;;;;4952155;28;20435;-84
2022/10/03 02:10:05;;;;;;;11.40;1.30;;;10.10;99.90;;;;;;4970373;28;20041;-84
2022/10/03 02:13:05;;;;;;;10.73;1.35;;;10.10;99.90;;;;;;4923320;29;20071;-84
2022/10/03 02:16:06;;;;;;;11.13;1.75;;;10.10;99.90;;;;;;4950589;28;20058;-84
2022/10/03 02:18:44;;;;;;;11.82;1.90;;;10.10;99.90;;;;;;4934522;28;20051;-84
2022/10/03 02:21:21;;;;;;;12.48;1.55;;;10.20;99.90;;;;;;4963617;28;20137;-84
2022/10/03 02:24:00;;;;;;;12.05;1.05;;;10.20;99.90;;;;;;4955900;28;20050;-84
2022/10/03 02:26:50;;;;;;;9.73;1.42;;;10.30;99.90;;;;;;4939527;29;20653;-84
2022/10/03 02:29:40;;;;;;;12.52;1.95;;;10.30;99.90;;;;;;4960649;28;20081;-84
2022/10/03 02:32:18;;;;;;;11.15;2.38;;;10.30;99.90;;;;;;4941546;28;20106;-84
2022/10/03 02:35:06;;;;;;;13.27;1.77;;;10.30;99.90;;;;;;4941425;28;20043;-84
2022/10/03 02:37:54;;;;;;;7.65;1.10;;;10.30;99.90;;;;;;4966643;28;20043;-84
2022/10/03 02:40:38;;;;;;;13.77;1.25;;;10.30;99.90;;;;;;4955266;28;20040;-84
2022/10/03 02:43:31;;;;;;;14.05;2.30;;;10.30;99.90;;;;;;4935751;29;20040;-84
2022/10/03 02:46:17;;;;;;;9.23;1.63;;;10.30;99.90;;;;;;4950075;28;20122;-84
2022/10/03 02:49:09;;;;;;;10.32;1.98;;;10.30;99.90;;;;;;4950737;28;20507;-84
2022/10/03 02:51:58;;;;;;;11.15;2.78;;;10.30;99.90;;;;;;4938684;28;20443;-83
2022/10/03 02:54:43;;;;;;;7.57;1.48;;;10.30;99.90;;;;;;4963569;28;20463;-84
2022/10/03 02:57:15;;;;;;;13.50;1.10;;;10.30;99.90;;;;;;4935705;29;20050;-84
2022/10/03 03:00:04;;;;;;;13.27;2.58;;;10.20;99.90;;;;;;4955836;28;20402;-85
2022/10/03 03:03:10;;;;;;;12.95;1.40;;;10.20;99.90;;;;;;4948369;28;20066;-85
2022/10/03 03:06:10;;;;;;;9.85;1.13;;;10.10;99.90;;;;;;4938254;28;20039;-85
2022/10/03 03:08:57;;;;;;;11.93;1.67;;;10.10;99.90;;;;;;4951905;28;20043;-84
2022/10/03 03:12:00;;;;;;;12.35;1.10;;;10.00;99.90;;;;;;4952911;28;20051;-85
2022/10/03 03:14:48;;;;;;;14.35;1.25;;;10.00;99.90;;;;;;4939059;28;20046;-84
2022/10/03 03:17:48;;;;;;;9.93;1.70;;;10.00;99.90;;;;;;4939751;28;20082;-84
2022/10/03 03:20:26;;;;;;;9.77;1.42;;;9.90;99.90;;;;;;4935212;28;20039;-84
2022/10/03 03:23:20;;;;;;;11.18;1.40;;;9.90;99.90;;;;;;4952935;28;20462;-85
2022/10/03 03:26:27;;;;;;;8.25;1.77;;;9.80;99.90;;;;;;4938777;28;20102;-85
2022/10/03 03:29:33;;;;;;;6.50;1.40;;;9.90;99.90;;;;;;4934067;28;20047;-83
2022/10/03 03:32:13;;;;;;;9.43;1.85;;;9.80;99.90;;;;;;4919213;28;20047;-84
2022/10/03 03:35:04;;;;;;;9.30;1.27;;;9.70;99.90;;;;;;4942406;28;20408;-85
2022/10/03 03:37:43;;;;;;;6.70;0.98;;;9.60;99.90;;;;;;4928203;28;20499;-84
2022/10/03 03:40:31;;;;;;;8.82;0.90;;;9.60;99.90;;;;;;4927439;28;20575;-84
2022/10/03 03:43:21;;;;;;;13.20;2.05;;;9.50;99.90;;;;;;4903676;28;20110;-83
2022/10/03 03:46:05;;;;;;;9.20;1.10;;;9.50;99.90;;;;;;4953037;28;20035;-84
2022/10/03 03:48:40;;;;;;;9.88;1.30;;;9.50;99.90;;;;;;4952762;28;20847;-85
2022/10/03 03:51:33;;;;;;;10.32;0.88;;;10.00;99.90;;;;;;4926239;29;20443;-85
2022/10/03 03:54:08;;;;;;;6.35;1.00;;;9.50;99.90;;;;;;4935844;28;20043;-83
2022/10/03 03:56:49;;;;;;;7.07;1.08;;;9.50;99.90;;;;;;4950507;28;20118;-83
2022/10/03 03:59:38;;;;;;;9.30;1.20;;;9.50;99.90;;;;;;4931702;28;20063;-84
2022/10/03 04:02:32;;;;;;;4.03;0.70;;;9.50;99.90;;;;;;4947693;28;20047;-85
2022/10/03 04:05:06;;;;;;;3.90;0.57;;;9.40;99.90;;;;;;4916785;28;20090;-85
2022/10/03 04:07:51;;;;;;;7.47;0.88;;;9.30;99.90;;;;;;4965166;28;20102;-85
2022/10/03 04:10:26;;;;;;;3.28;0.40;;;9.40;99.90;;;;;;4921970;29;20039;-83
2022/10/03 04:13:21;;;;;;;8.15;1.10;;;9.40;99.90;;;;;;4958874;28;20043;-83
2022/10/03 04:19:19;;;;;;;6.35;0.60;;;9.30;99.90;;;;;;4933897;28;20043;-83
2022/10/03 04:21:58;;;;;;;10.05;1.30;;;9.30;99.90;;;;;;4931551;28;20040;-85
2022/10/03 04:25:14;;;;;;;9.38;1.92;;;9.30;99.90;;;;;;4933681;29;20090;-87
2022/10/03 04:28:58;;;;;;;7.30;0.93;;;9.30;99.90;;;;;;4870445;29;20045;-87
2022/10/03 04:32:07;;;;;;;8.32;0.63;;;9.30;99.90;;;;;;4843667;29;20519;-86
2022/10/03 04:35:04;;;;;;;9.52;1.80;;;9.30;99.90;;;;;;4935079;28;20048;-87
2022/10/03 04:38:12;;;;;;;7.68;0.85;;;9.30;99.90;;;;;;4923421;28;20051;-85
2022/10/03 04:41:11;;;;;;;6.15;0.70;;;9.20;99.90;;;;;;4924739;28;20040;-86
2022/10/03 04:43:44;;;;;;;8.32;0.70;;;9.20;99.90;;;;;;4959281;28;20047;-85
2022/10/03 04:46:34;;;;;;;6.75;0.95;;;9.30;99.90;;;;;;4927844;29;20039;-85
2022/10/03 04:49:21;;;;;;;7.72;0.60;;;9.10;99.90;;;;;;4920373;29;20043;-84
2022/10/03 04:52:21;;;;;;;6.32;1.98;;;9.10;99.90;;;;;;4947470;28;20553;-81
2022/10/03 04:54:47;;;;;;;5.72;0.70;;;9.10;99.90;;;;;;4966486;28;20047;-82
2022/10/03 04:57:46;;;;;;;3.92;0.30;;;9.00;99.90;;;;;;4929242;29;20059;-81
2022/10/03 05:00:32;;;;;;;9.23;0.80;;;8.90;99.90;;;;;;4932988;28;20043;-83
2022/10/03 05:03:00;;;;;;;;;;;8.90;99.90;;;;;;4931971;28;20043;-83
2022/10/03 05:05:48;;;;;;;9.48;0.95;;;8.90;99.90;;;;;;4948738;28;20405;-83
2022/10/03 05:08:30;;;;;;;6.20;0.60;;;8.90;99.90;;;;;;4947791;28;20036;-83
2022/10/03 05:11:17;;;;;;;4.40;1.10;;;9.00;99.90;;;;;;4947986;28;20039;-82
2022/10/03 05:14:11;;;;;;;3.92;1.10;;;8.90;99.90;;;;;;4971103;28;20039;-84
2022/10/03 05:16:41;;;;;;;4.20;1.20;;;9.00;99.90;;;;;;4926705;28;20042;-85
2022/10/03 05:19:35;;;;;;;3.33;0.60;;;8.90;99.90;;;;;;4935305;29;20503;-82
2022/10/03 05:22:19;;;;;;;4.90;0.73;;;8.80;99.90;;;;;;4954080;28;20118;-83
2022/10/03 05:25:20;;;;;;;7.00;0.88;;;8.80;99.90;;;;;;4987281;28;20431;-84
2022/10/03 05:28:14;;;;;;;6.35;0.55;;;8.70;99.90;;;;;;4928238;28;20110;-86
2022/10/03 05:30:55;;;;;;;4.32;0.68;;;8.60;99.90;;;;;;4936207;28;20408;-85
2022/10/03 05:33:48;;;;;;;6.25;0.85;;;8.50;99.90;;;;;;4969739;28;20492;-87
2022/10/03 05:37:07;;;;;;;11.02;1.15;;;8.40;99.90;;;;;;4940778;28;20050;-85
2022/10/03 05:39:46;;;;;;;10.55;0.93;;;8.50;99.90;;;;;;4942386;28;20108;-84
2022/10/03 05:42:28;;;;;;;10.32;1.10;;;8.60;99.90;;;;;;4957888;28;20121;-85
2022/10/03 05:45:32;;;;;;;7.90;1.38;;;8.70;99.90;;;;;;4936295;28;20039;-86
2022/10/03 05:48:52;;;;;;;8.10;0.77;;;8.70;99.90;;;;;;4908589;28;20129;-89
2022/10/03 05:51:41;;;;;;;10.43;1.40;;;8.70;99.90;;;;;;4877997;29;20051;-83
2022/10/03 05:54:07;;;;;;;6.50;1.35;;;8.80;99.90;;;;;;4959539;28;20048;-83
2022/10/03 05:56:38;;;;;;;8.48;2.00;;;8.80;99.90;;;;;;4939759;28;20042;-83
2022/10/03 05:59:42;;;;;;;10.63;1.58;;;8.90;99.90;;;;;;4936615;29;20035;-81
2022/10/03 06:02:57;;;;;;;9.70;1.33;;;9.00;99.90;;;;;;4944290;28;20050;-83
2022/10/03 06:05:32;;;;;;;9.90;1.58;;;9.10;99.90;;;;;;4942554;29;20114;-82
2022/10/03 06:08:13;;;;;;;8.00;1.50;;;9.20;99.90;;;;;;4958566;28;20039;-84
2022/10/03 06:10:42;;;;;;;9.90;1.25;;;9.50;99.90;;;;;;4943828;28;20463;-83
2022/10/03 06:13:25;;;;;;;8.43;0.85;;;9.70;99.90;;;;;;4950049;29;20054;-83
2022/10/03 06:16:20;;;;;;;5.13;1.58;;;9.90;99.90;;;;;;4929360;29;20050;-83
2022/10/03 06:19:12;;;;;;;9.57;1.13;;;10.00;99.90;;;;;;4941742;28;20420;-83
2022/10/03 06:22:16;;;;;;;4.55;0.68;;;10.10;99.90;;;;;;4964593;28;20046;-83
2022/10/03 06:25:09;;;;;;;4.85;0.90;;;10.90;99.90;;;;;;4947425;28;20035;-83
2022/10/03 06:28:22;;;;;;;5.32;0.50;;;12.30;99.90;;;;;;4942810;28;20039;-84
2022/10/03 06:30:50;;;;;;;3.75;0.40;;;13.60;99.90;;;;;;4948341;28;20123;-84
2022/10/03 06:33:47;;;;;;;6.45;1.33;;;14.40;99.90;;;;;;4964584;28;20390;-84
2022/10/03 06:36:35;;;;;;;6.97;0.70;;;14.70;99.90;;;;;;4955737;28;20467;-84
2022/10/03 06:39:22;;;;;;;7.50;0.88;;;14.60;99.90;;;;;;4968641;28;20450;-84
2022/10/03 06:42:26;;;;;;;6.68;0.80;;;14.50;99.90;;;;;;4970919;28;20048;-84
2022/10/03 06:45:16;;;;;;;5.13;0.70;;;14.20;99.90;;;;;;4935522;29;20061;-84
2022/10/03 06:47:46;;;;;;;4.90;0.60;;;13.80;99.90;;;;;;4950408;28;20106;-85
2022/10/03 06:50:17;;;;;;;5.75;0.90;;;13.50;99.90;;;;;;4928002;29;20039;-85
2022/10/03 06:52:55;;;;;;;5.28;0.60;;;13.20;99.90;;;;;;4963648;28;20039;-84
2022/10/03 06:55:31;;;;;;;6.82;1.05;;;13.00;99.90;;;;;;4930464;29;20106;-85
2022/10/03 06:58:18;;;;;;;7.57;1.13;;;13.00;99.90;;;;;;4942104;28;20544;-85
2022/10/03 07:01:15;;;;;;;9.27;1.60;;;13.00;99.90;;;;;;4932672;28;21624;-84
2022/10/03 07:04:13;;;;;;;8.40;1.25;;;12.90;99.90;;;;;;4922805;29;20053;-85
2022/10/03 07:06:48;;;;;;;6.55;0.95;;;12.80;99.90;;;;;;4897493;28;20055;-83
2022/10/03 07:09:43;;;;;;;7.55;1.00;;;12.60;99.90;;;;;;4915894;29;20142;-84
2022/10/03 07:12:34;;;;;;;5.75;1.00;;;12.60;99.90;;;;;;4947596;28;20129;-85
2022/10/03 07:15:13;;;;;;;5.10;1.45;;;12.50;99.90;;;;;;4919398;29;20039;-84
2022/10/03 07:18:01;;;;;;;9.50;1.15;;;12.50;99.90;;;;;;4938626;28;21038;-85
2022/10/03 07:20:45;;;;;;;6.55;0.93;;;12.50;99.90;;;;;;4938169;28;20036;-83
2022/10/03 07:23:36;;;;;;;13.77;1.92;;;12.40;99.90;;;;;;4928471;29;20038;-84
2022/10/03 07:26:26;;;;;;;6.75;1.13;;;12.40;99.90;;;;;;4960569;28;20055;-85
2022/10/03 07:29:06;;;;;;;8.57;0.98;;;12.40;99.90;;;;;;4930579;28;20404;-84
2022/10/03 07:31:47;;;;;;;8.20;0.70;;;12.40;99.90;;;;;;4916852;29;20039;-84
2022/10/03 07:34:50;;;;;;;6.22;1.50;;;12.30;99.90;;;;;;4940151;28;20038;-84
2022/10/03 07:40:24;;;;;;;7.40;1.02;;;12.50;99.90;;;;;;4930396;28;20047;-84
2022/10/03 07:43:02;;;;;;;7.20;0.95;;;12.50;99.90;;;;;;4942957;28;20039;-84
2022/10/03 07:45:33;;;;;;;11.02;0.93;;;12.50;99.90;;;;;;4951207;28;20050;-84
2022/10/03 07:48:39;;;;;;;9.85;1.30;;;12.60;99.90;;;;;;4937117;28;20495;-84
2022/10/03 07:51:17;;;;;;;7.63;1.10;;;12.70;99.90;;;;;;4944062;28;20508;-84
2022/10/03 07:54:17;;;;;;;5.03;1.02;;;12.70;99.90;;;;;;4963360;28;20059;-84
2022/10/03 07:57:08;;;;;;;5.72;0.73;;;12.80;99.90;;;;;;4958046;28;20067;-85
2022/10/03 07:59:34;;;;;;;5.40;0.77;;;12.80;99.90;;;;;;4949008;28;20126;-84
2022/10/03 08:02:08;;;;;;;11.98;1.20;;;12.90;99.90;;;;;;4931330;28;20450;-84
2022/10/03 08:05:05;;;;;;;6.93;0.70;;;12.90;99.90;;;;;;4948601;28;20476;-84
2022/10/03 08:07:59;;;;;;;8.25;2.05;;;12.90;99.90;;;;;;4942172;28;20070;-87
2022/10/03 08:11:00;;;;;;;5.40;0.90;;;13.00;99.90;;;;;;4947120;28;20035;-83
2022/10/03 08:13:48;;;;;;;9.30;1.05;;;13.00;99.90;;;;;;4920571;28;20063;-84
2022/10/03 08:16:29;;;;;;;4.53;0.57;;;13.20;99.90;;;;;;4938027;28;20056;-84
2022/10/03 08:19:11;;;;;;;7.13;1.00;;;13.30;99.90;;;;;;4917043;28;20039;-84
2022/10/03 08:21:39;;;;;;;4.82;0.73;;;13.40;99.90;;;;;;4958989;28;20130;-84
2022/10/03 08:24:48;;;;;;;6.13;0.80;;;13.40;99.90;;;;;;4956054;28;20066;-84
2022/10/03 08:27:42;;;;;;;5.78;1.20;;;13.50;99.90;;;;;;4918151;28;20526;-84
2022/10/03 08:30:21;;;;;;;5.28;0.50;;;13.50;99.90;;;;;;4914877;28;20046;-87
2022/10/03 08:32:55;;;;;;;11.30;2.13;;;13.70;99.90;;;;;;4932160;28;20058;-84
2022/10/03 08:35:37;;;;;;;9.60;1.50;;;13.70;99.90;;;;;;4940353;28;20376;-84
2022/10/03 08:38:40;;;;;;;14.02;1.23;;;13.80;99.90;;;;;;4947201;28;20050;-84
2022/10/03 08:41:27;;;;;;;10.63;1.52;;;13.90;99.90;;;;;;4942758;28;20047;-84
2022/10/03 08:44:38;;;;;;;8.48;0.80;;;13.90;99.90;;;;;;4931145;28;20050;-84
2022/10/03 08:47:13;;;;;;;8.45;1.15;;;14.10;99.90;;;;;;4911154;29;20051;-84
2022/10/03 08:49:39;;;;;;;7.43;1.02;;;14.10;99.90;;;;;;4918887;28;20047;-83
2022/10/03 08:52:16;;;;;;;11.60;1.42;;;14.20;99.90;;;;;;4928579;29;20059;-85
2022/10/03 08:55:06;;;;;;;7.22;0.75;;;14.40;99.90;;;;;;4942200;28;20046;-84
2022/10/03 08:57:53;;;;;;;9.05;1.25;;;14.50;99.90;;;;;;4917202;28;20112;-87
2022/10/03 09:00:41;;;;;;;6.82;0.85;;;14.50;99.90;;;;;;4949112;28;20058;-85
2022/10/03 09:03:45;;;;;;;8.20;0.68;;;14.70;99.90;;;;;;4910893;29;20059;-84
2022/10/03 09:06:53;;;;;;;11.15;1.13;;;14.70;99.90;;;;;;4940434;28;20040;-83
2022/10/03 09:09:51;;;;;;;8.98;1.48;;;14.80;99.90;;;;;;4951240;28;20054;-84
2022/10/03 09:12:26;;;;;;;8.25;1.08;;;14.90;99.90;;;;;;4933403;29;20035;-84
2022/10/03 09:15:26;;;;;;;3.63;0.65;;;15.00;99.90;;;;;;4960323;28;20047;-84
2022/10/03 09:18:25;;;;;;;8.63;1.15;;;15.10;99.90;;;;;;4946961;28;20035;-85
2022/10/03 09:21:29;;;;;;;14.02;1.33;;;15.20;99.90;;;;;;4939516;28;20038;-84
2022/10/03 09:24:19;;;;;;;9.07;1.05;;;15.20;99.90;;;;;;4958520;28;20039;-84
2022/10/03 09:26:57;;;;;;;9.48;1.23;;;15.30;99.90;;;;;;4949042;28;20040;-84
2022/10/03 09:29:33;;;;;;;7.88;0.93;;;15.20;99.90;;;;;;4915365;29;20118;-84
2022/10/03 09:32:36;;;;;;;6.38;0.80;;;15.40;99.90;;;;;;4964678;28;20166;-84
2022/10/03 09:35:29;;;;;;;6.22;0.82;;;15.50;99.90;;;;;;4927497;28;20054;-83
2022/10/03 09:38:21;;;;;;;6.75;1.33;;;15.60;99.90;;;;;;4957303;28;20047;-84
2022/10/03 09:41:29;;;;;;;4.78;0.85;;;15.60;99.90;;;;;;4966781;28;20048;-84
2022/10/03 09:44:29;;;;;;;8.15;1.63;;;15.70;99.90;;;;;;4877203;29;20045;-85
2022/10/03 09:47:39;;;;;;;6.88;0.70;;;15.70;99.90;;;;;;4945264;28;20050;-87
2022/10/03 09:50:18;;;;;;;10.30;1.80;;;15.80;99.90;;;;;;4905857;28;20082;-85
2022/10/03 09:53:01;;;;;;;11.27;1.83;;;15.90;99.90;;;;;;4946941;28;20036;-85
2022/10/03 09:56:00;;;;;;;6.82;1.02;;;16.00;99.90;;;;;;4924553;29;20043;-84
2022/10/03 09:58:51;;;;;;;5.85;0.77;;;16.10;99.90;;;;;;4947696;28;20372;-83
2022/10/03 10:01:37;;;;;;;7.53;0.82;;;16.20;99.90;;;;;;4920904;29;20126;-84
2022/10/03 10:04:44;;;;;;;3.53;0.80;;;16.60;99.90;;;;;;4927502;29;20075;-87
2022/10/03 10:07:33;;;;;;;7.50;0.90;;;16.30;99.90;;;;;;4943693;28;20059;-84
2022/10/03 10:10:36;;;;;;;5.95;1.27;;;16.40;99.90;;;;;;4931351;29;20067;-84
2022/10/03 10:13:27;;;;;;;9.27;1.40;;;16.60;99.90;;;;;;4933181;29;20044;-85
2022/10/03 10:15:53;;;;;;;5.47;1.55;;;16.60;99.90;;;;;;4929505;28;20047;-84
2022/10/03 10:18:47;;;;;;;5.93;0.98;;;16.80;99.90;;;;;;4942886;28;20049;-85
2022/10/03 10:21:41;;;;;;;7.35;1.00;;;16.90;99.90;;;;;;4934686;29;20054;-83
2022/10/03 10:24:25;;;;;;;4.30;0.55;;;17.00;99.90;;;;;;4962483;28;20105;-87
2022/10/03 10:26:59;;;;;;;7.07;1.05;;;17.20;99.90;;;;;;4943339;28;20058;-85
2022/10/03 10:29:59;;;;;;;7.10;0.80;;;17.30;99.90;;;;;;4937656;28;20039;-85
2022/10/03 10:33:07;;;;;;;9.02;1.02;;;17.40;99.90;;;;;;4927825;28;20303;-84
2022/10/03 10:35:45;;;;;;;4.40;0.95;;;17.50;99.90;;;;;;4917928;28;20039;-84
2022/10/03 10:38:28;;;;;;;6.45;1.20;;;17.60;99.90;;;;;;4912466;28;20114;-83
2022/10/03 10:41:26;;;;;;;4.85;0.77;;;17.60;99.90;;;;;;4945449;28;20062;-84
2022/10/03 10:44:14;;;;;;;4.53;0.80;;;17.70;99.90;;;;;;4925126;28;20035;-83
2022/10/03 10:47:17;;;;;;;7.35;0.85;;;17.70;99.90;;;;;;4921645;28;20047;-85
2022/10/03 10:49:56;;;;;;;9.20;0.93;;;17.90;99.90;;;;;;4933617;28;20046;-84
2022/10/03 10:53:03;;;;;;;7.78;1.25;;;17.90;99.90;;;;;;4922029;29;20900;-83
2022/10/03 10:56:03;;;;;;;5.75;1.05;;;18.00;99.90;;;;;;4921128;28;20047;-86
2022/10/03 10:59:00;;;;;;;8.43;1.13;;;18.20;99.90;;;;;;4917084;28;20039;-85
2022/10/03 11:01:50;;;;;;;4.70;0.63;;;18.30;99.90;;;;;;4944511;28;20032;-84
2022/10/03 11:05:01;;;;;;;4.15;1.30;;;18.40;99.90;;;;;;4925269;29;20035;-84
2022/10/03 11:07:33;;;;;;;4.78;0.95;;;18.50;99.90;;;;;;4960677;28;20048;-84
2022/10/03 11:10:20;;;;;;;5.70;0.80;;;18.00;99.90;;;;;;4943323;28;20051;-86
2022/10/03 11:13:26;;;;;;;8.60;1.45;;;18.40;99.90;;;;;;4942380;28;20075;-84
2022/10/03 11:16:10;;;;;;;3.15;0.70;;;18.30;99.90;;;;;;4933072;28;20047;-85
2022/10/03 11:18:48;;;;;;;5.47;0.88;;;18.20;99.90;;;;;;4940954;28;20039;-84
2022/10/03 11:21:32;;;;;;;5.30;1.02;;;18.10;99.90;;;;;;4958204;28;20047;-85
2022/10/03 11:24:36;;;;;;;5.75;0.90;;;18.40;99.90;;;;;;4912357;28;20051;-84
2022/10/03 11:27:40;;;;;;;4.75;0.85;;;17.90;99.90;;;;;;4958267;28;20048;-85
2022/10/03 11:30:33;;;;;;;5.07;0.63;;;17.90;99.90;;;;;;4941643;28;20519;-85
2022/10/03 11:33:33;;;;;;;3.22;0.50;;;17.90;99.90;;;;;;4943692;28;20133;-84
2022/10/03 11:36:26;;;;;;;4.40;0.80;;;18.00;99.90;;;;;;4927791;29;20040;-84
2022/10/03 11:39:29;;;;;;;6.32;0.93;;;18.00;99.90;;;;;;4945980;28;20505;-85
2022/10/03 11:42:02;;;;;;;5.93;1.02;;;18.00;99.90;;;;;;4938877;28;20499;-86
2022/10/03 11:44:51;;;;;;;3.75;1.33;;;18.10;99.90;;;;;;4948462;28;20058;-85
2022/10/03 11:47:41;;;;;;;5.18;0.60;;;18.10;99.90;;;;;;4922437;28;20057;-84
2022/10/03 11:50:31;;;;;;;6.38;1.58;;;18.20;99.90;;;;;;4925768;28;20094;-85
2022/10/03 11:53:10;;;;;;;5.65;1.23;;;18.10;99.90;;;;;;4936626;28;20484;-83
2022/10/03 11:55:45;;;;;;;4.30;0.65;;;18.10;99.90;;;;;;4942684;28;20035;-83
2022/10/03 11:58:38;;;;;;;2.30;0.47;;;18.00;99.90;;;;;;4937678;28;20043;-87
2022/10/03 12:01:27;;;;;;;10.65;1.15;;;18.10;99.90;;;;;;4925654;29;20054;-83
2022/10/03 12:03:56;;;;;;;5.20;0.93;;;18.10;99.90;;;;;;4912854;29;20044;-84
2022/10/03 12:10:00;;;;;;;8.48;0.88;;;18.10;99.90;;;;;;4902127;29;20059;-84
2022/10/03 12:12:35;;;;;;;5.80;0.60;;;18.30;99.90;;;;;;4907531;29;20078;-84
2022/10/03 12:15:33;;;;;;;6.88;1.27;;;18.40;99.90;;;;;;4909163;29;20080;-84
2022/10/03 12:18:01;;;;;;;5.65;1.00;;;18.40;99.90;;;;;;4941625;28;20052;-84
2022/10/03 12:21:06;;;;;;;5.72;1.00;;;18.40;99.90;;;;;;4929070;29;20097;-83
2022/10/03 12:23:57;;;;;;;7.53;1.00;;;18.40;99.90;;;;;;4938786;28;20055;-85
2022/10/03 12:26:41;;;;;;;5.50;1.05;;;18.40;99.90;;;;;;4935434;28;20040;-83
2022/10/03 12:29:10;;;;;;;4.78;0.70;;;18.40;99.90;;;;;;4907479;29;20123;-83
2022/10/03 12:32:00;;;;;;;8.27;0.68;;;18.50;99.90;;;;;;4925206;29;20039;-83
2022/10/03 12:34:43;;;;;;;4.00;0.65;;;18.40;99.90;;;;;;4904863;29;20056;-85
2022/10/03 12:37:23;;;;;;;4.82;0.90;;;18.50;99.90;;;;;;4911422;29;20036;-85
2022/10/03 12:40:09;;;;;;;5.28;0.80;;;19.10;99.90;;;;;;4906056;29;20051;-83
2022/10/03 12:42:59;;;;;;;4.68;0.60;;;18.70;99.90;;;;;;4915365;29;20067;-83
2022/10/03 12:45:49;;;;;;;5.43;1.25;;;18.60;99.90;;;;;;4908998;29;20124;-85
2022/10/03 12:48:41;;;;;;;5.70;0.70;;;18.80;99.90;;;;;;4900881;29;20032;-83
2022/10/03 12:51:19;;;;;;;6.78;0.82;;;18.80;99.90;;;;;;4925970;29;20175;-83
2022/10/03 12:54:18;;;;;;;6.10;0.80;;;18.70;99.90;;;;;;4897614;29;20035;-83
2022/10/03 12:56:52;;;;;;;6.30;0.90;;;18.70;99.90;;;;;;4908067;29;20039;-83
2022/10/03 12:59:41;;;;;;;5.55;1.38;;;18.60;99.90;;;;;;4937108;29;20089;-83
2022/10/03 13:02:24;;;;;;;4.75;0.65;;;18.40;99.90;;;;;;4931508;29;20495;-87
2022/10/03 13:04:59;;;;;;;5.03;1.13;;;18.40;99.90;;;;;;4957636;28;20118;-83
2022/10/03 13:07:51;;;;;;;6.63;1.55;;;18.30;99.90;;;;;;4948816;29;20040;-83
2022/10/03 13:10:35;;;;;;;7.55;1.13;;;18.30;99.90;;;;;;4935352;29;20749;-84
2022/10/03 13:13:41;;;;;;;4.57;1.25;;;18.30;99.90;;;;;;4963567;28;20046;-83
2022/10/03 13:16:30;;;;;;;6.05;1.23;;;18.20;99.90;;;;;;4919178;29;20103;-83
2022/10/03 13:19:22;;;;;;;7.13;0.88;;;18.20;99.90;;;;;;4963966;28;20049;-83
2022/10/03 13:21:51;;;;;;;6.65;1.13;;;18.30;99.90;;;;;;4947622;29;20050;-83
2022/10/03 13:24:35;;;;;;;3.50;0.60;;;18.30;99.90;;;;;;4940421;28;20451;-84
2022/10/03 13:27:23;;;;;;;5.18;1.33;;;18.30;99.90;;;;;;4937605;29;20070;-82
2022/10/03 13:29:56;;;;;;;3.88;0.63;;;18.30;99.90;;;;;;4920196;28;20093;-83
2022/10/03 13:32:35;;;;;;;5.85;1.25;;;18.30;99.90;;;;;;4930679;29;20042;-84
2022/10/03 13:38:05;;;;;;;5.63;0.80;;;18.30;99.90;;;;;;4936121;28;20081;-83
2022/10/03 13:40:35;;;;;;;4.25;1.05;;;18.20;99.90;;;;;;4946624;28;20040;-84
2022/10/03 13:43:08;;;;;;;6.35;0.55;;;18.30;99.90;;;;;;4948444;28;20166;-83
2022/10/03 13:45:39;;;;;;;5.65;0.70;;;18.30;99.90;;;;;;4937797;29;20040;-82
2022/10/03 13:48:39;;;;;;;4.57;0.65;;;18.30;99.90;;;;;;4966004;28;20414;-87
2022/10/03 13:51:33;;;;;;;2.95;0.60;;;18.40;99.90;;;;;;4932995;29;20035;-85
2022/10/03 13:54:29;;;;;;;4.47;0.98;;;18.30;99.90;;;;;;4924360;29;20046;-85
2022/10/03 13:57:08;;;;;;;4.07;0.63;;;18.30;99.90;;;;;;4943402;28;20106;-86
2022/10/03 14:00:11;;;;;;;4.75;0.77;;;18.40;99.90;;;;;;4896737;29;20143;-86
2022/10/03 14:03:13;;;;;;;5.45;1.02;;;18.30;99.90;;;;;;4945658;28;20079;-87
2022/10/03 14:06:33;;;;;;;4.63;0.60;;;18.30;99.90;;;;;;4915836;28;20055;-86
2022/10/03 14:13:18;;;;;;;5.60;0.77;;;18.30;99.90;;;;;;4938809;29;20042;-87
2022/10/03 14:16:41;;;;;;;5.22;1.33;;;18.30;99.90;;;;;;4932308;28;20511;-87
2022/10/03 14:19:44;;;;;;;4.60;0.68;;;18.30;99.90;;;;;;4927645;28;20115;-86
2022/10/03 14:23:07;;;;;;;4.82;0.95;;;18.20;99.90;;;;;;4947588;28;20099;-86
2022/10/03 14:26:23;;;;;;;2.50;0.60;;;18.10;99.90;;;;;;4920261;28;20074;-86
2022/10/03 14:33:15;;;;;;;9.23;1.70;;;17.90;99.90;;;;;;4950727;28;20042;-86
2022/10/03 14:40:16;;;;;;;4.85;1.52;;;17.70;99.90;;;;;;4950747;28;20035;-86
2022/10/03 14:43:22;;;;;;;;;;;17.70;99.90;;;;;;4937091;29;20051;-86
2022/10/03 14:46:43;;;;;;;3.65;0.63;;;17.60;99.90;;;;;;4947787;28;19997;-86
2022/10/03 14:56:23;;;;;;;3.92;1.05;;;17.40;99.90;;;;;;4960907;28;20036;-86
2022/10/03 14:59:25;;;;;;;5.38;1.08;;;17.30;99.90;;;;;;4936404;29;20050;-87
2022/10/03 15:01:59;;;;;;;3.42;0.80;;;17.40;99.90;;;;;;4934812;29;20089;-86
2022/10/03 15:05:38;;;;;;;5.35;1.23;;;17.30;99.90;;;;;;4949527;28;20062;-86
2022/10/03 15:08:16;;;;;;;5.57;0.50;;;17.20;99.90;;;;;;4935987;29;20439;-86
2022/10/03 15:10:42;;;;;;;4.05;0.60;;;17.30;99.90;;;;;;4944120;29;20044;-85